createdAt,value
2017-08-31T00:02:26.714Z,25.51
2017-08-31T00:04:55.174Z,25.49
2017-08-31T00:07:23.519Z,25.52
2017-08-31T00:09:51.865Z,25.52
2017-08-31T00:12:20.256Z,25.52
2017-08-31T00:14:48.586Z,25.51
2017-08-31T00:17:16.951Z,25.51
2017-08-31T00:19:45.339Z,24.86
2017-08-31T00:22:13.906Z,25.12
2017-08-31T00:24:42.294Z,24.37
2017-08-31T00:27:10.635Z,24.91
2017-08-31T00:29:39.083Z,25.21
2017-08-31T00:32:07.429Z,25.31
2017-08-31T00:34:35.958Z,25.35
2017-08-31T00:37:04.304Z,25.35
2017-08-31T00:39:32.637Z,25.35
2017-08-31T00:42:01.038Z,25.34
2017-08-31T00:44:29.377Z,25.38
2017-08-31T00:46:57.787Z,25.41
2017-08-31T00:49:26.174Z,25.41
2017-08-31T00:51:54.515Z,25.43
2017-08-31T00:54:22.898Z,25.45
2017-08-31T00:56:51.240Z,25.07
2017-08-31T00:59:19.674Z,25.06
2017-08-31T01:01:48.019Z,24.67
2017-08-31T01:04:16.458Z,22.47
2017-08-31T01:06:44.856Z,22.33
2017-08-31T01:09:13.234Z,23.08
2017-08-31T01:11:41.591Z,23.85
2017-08-31T01:14:10.019Z,22.58
2017-08-31T01:16:38.395Z,22.92
2017-08-31T01:19:06.753Z,20.38
2017-08-31T01:21:35.206Z,19.95
2017-08-31T01:24:03.590Z,19.74
2017-08-31T01:26:32.085Z,19.99
2017-08-31T01:29:00.435Z,21.87
2017-08-31T01:31:28.857Z,22.60
2017-08-31T01:33:57.268Z,21.27
2017-08-31T01:36:25.642Z,21.62
2017-08-31T01:38:53.992Z,20.46
2017-08-31T01:41:22.379Z,20.94
2017-08-31T01:43:50.713Z,20.24
2017-08-31T01:46:19.082Z,20.36
2017-08-31T01:48:47.418Z,20.61
2017-08-31T01:51:15.769Z,20.32
2017-08-31T01:53:44.103Z,19.57
2017-08-31T01:56:12.442Z,20.16
2017-08-31T01:58:40.870Z,19.99
2017-08-31T02:01:09.231Z,19.44
2017-08-31T02:03:37.597Z,19.96
2017-08-31T02:06:06.040Z,19.69
2017-08-31T02:08:34.370Z,20.12
2017-08-31T02:11:02.822Z,20.59
2017-08-31T02:13:31.205Z,22.03
2017-08-31T02:15:59.582Z,21.01
2017-08-31T02:18:27.931Z,21.72
2017-08-31T02:20:56.304Z,20.92
2017-08-31T02:23:24.677Z,20.30
2017-08-31T02:25:53.093Z,19.92
2017-08-31T02:28:21.559Z,20.13
2017-08-31T02:30:49.949Z,21.24
2017-08-31T02:33:18.281Z,20.26
2017-08-31T02:35:46.622Z,21.16
2017-08-31T02:38:14.966Z,20.76
2017-08-31T02:40:43.430Z,21.84
2017-08-31T02:43:11.764Z,22.22
2017-08-31T02:45:40.207Z,22.26
2017-08-31T02:48:08.556Z,23.40
2017-08-31T02:50:36.925Z,23.79
2017-08-31T02:53:05.262Z,24.27
2017-08-31T02:55:33.602Z,24.49
2017-08-31T02:58:01.968Z,24.54
2017-08-31T03:00:30.305Z,24.70
2017-08-31T03:02:59.215Z,24.78
2017-08-31T03:05:27.971Z,24.82
2017-08-31T03:07:57.745Z,24.87
2017-08-31T03:10:26.999Z,24.88
2017-08-31T03:12:56.360Z,24.78
2017-08-31T03:15:26.087Z,22.85
2017-08-31T03:17:54.998Z,23.41
2017-08-31T03:20:23.382Z,24.15
2017-08-31T03:22:51.721Z,24.20
2017-08-31T03:25:20.093Z,24.51
2017-08-31T03:27:48.439Z,24.74
2017-08-31T03:30:16.787Z,24.59
2017-08-31T03:32:45.134Z,24.82
2017-08-31T03:35:13.490Z,24.90
2017-08-31T03:37:41.826Z,24.93
2017-08-31T03:40:10.231Z,24.94
2017-08-31T03:42:38.657Z,24.99
2017-08-31T03:45:07.123Z,25.04
2017-08-31T03:47:35.461Z,23.75
2017-08-31T03:50:03.810Z,24.26
2017-08-31T03:52:32.163Z,22.51
2017-08-31T03:55:00.598Z,21.81
2017-08-31T03:57:29.284Z,21.65
2017-08-31T03:59:57.691Z,20.75
2017-08-31T04:02:26.058Z,21.04
2017-08-31T04:04:54.430Z,22.48
2017-08-31T04:07:22.771Z,23.33
2017-08-31T04:09:51.234Z,23.60
2017-08-31T04:12:19.582Z,24.36
2017-08-31T04:14:47.939Z,24.67
2017-08-31T04:17:16.305Z,24.80
2017-08-31T04:19:44.712Z,22.71
2017-08-31T04:22:13.112Z,20.56
2017-08-31T04:24:41.822Z,22.97
2017-08-31T04:27:10.199Z,23.90
2017-08-31T04:29:38.579Z,23.17
2017-08-31T04:32:06.962Z,22.92
2017-08-31T04:34:35.374Z,20.71
2017-08-31T04:37:03.751Z,22.02
2017-08-31T04:39:32.242Z,21.59
2017-08-31T04:42:00.579Z,20.66
2017-08-31T04:44:29.029Z,21.64
2017-08-31T04:46:57.414Z,22.33
2017-08-31T04:49:25.824Z,21.92
2017-08-31T04:51:54.199Z,22.98
2017-08-31T04:54:22.557Z,20.69
2017-08-31T04:56:51.082Z,20.90
2017-08-31T04:59:19.478Z,20.39
2017-08-31T05:01:47.814Z,19.49
2017-08-31T05:04:16.158Z,19.09
2017-08-31T05:06:44.579Z,19.15
2017-08-31T05:09:12.929Z,18.74
2017-08-31T05:11:41.275Z,18.85
2017-08-31T05:14:09.616Z,19.01
2017-08-31T05:16:37.991Z,18.88
2017-08-31T05:19:06.332Z,18.80
2017-08-31T05:21:34.697Z,19.31
2017-08-31T05:24:03.040Z,18.99
2017-08-31T05:26:31.378Z,18.48
2017-08-31T05:28:59.736Z,19.25
2017-08-31T05:31:28.087Z,20.10
2017-08-31T05:33:56.418Z,18.86
2017-08-31T05:36:24.782Z,18.74
2017-08-31T05:38:53.115Z,18.97
2017-08-31T05:41:21.464Z,19.18
2017-08-31T05:43:49.837Z,18.61
2017-08-31T05:46:18.177Z,19.09
2017-08-31T05:48:46.538Z,18.93
2017-08-31T05:51:14.926Z,20.02
2017-08-31T05:53:43.259Z,20.78
2017-08-31T05:56:11.602Z,21.84
2017-08-31T05:58:39.946Z,23.25
2017-08-31T06:01:08.441Z,23.54
2017-08-31T06:03:36.778Z,22.79
2017-08-31T06:06:05.110Z,23.48
2017-08-31T06:08:33.452Z,23.58
2017-08-31T06:11:01.785Z,23.80
2017-08-31T06:13:30.127Z,24.09
2017-08-31T06:15:58.467Z,24.21
2017-08-31T06:18:26.902Z,24.35
2017-08-31T06:20:55.235Z,24.39
2017-08-31T06:23:23.646Z,24.42
2017-08-31T06:25:52.038Z,24.39
2017-08-31T06:28:20.444Z,24.41
2017-08-31T06:30:48.821Z,24.44
2017-08-31T06:33:17.227Z,24.48
2017-08-31T06:35:45.562Z,24.48
2017-08-31T06:38:13.902Z,24.48
2017-08-31T06:40:42.270Z,24.41
2017-08-31T06:43:10.605Z,24.20
2017-08-31T06:45:38.973Z,23.81
2017-08-31T06:48:07.462Z,23.97
2017-08-31T06:50:35.815Z,23.91
2017-08-31T06:53:04.248Z,23.96
2017-08-31T06:55:32.650Z,24.05
2017-08-31T06:58:01.066Z,24.13
2017-08-31T07:00:29.391Z,23.91
2017-08-31T07:02:57.811Z,23.56
2017-08-31T07:05:26.205Z,23.42
2017-08-31T07:07:54.596Z,23.60
2017-08-31T07:10:23.014Z,23.55
2017-08-31T07:12:51.375Z,22.70
2017-08-31T07:17:47.247Z,22.96
2017-08-31T07:20:15.644Z,23.03
2017-08-31T07:22:44.022Z,22.93
2017-08-31T07:25:12.353Z,23.26
2017-08-31T07:27:41.246Z,23.30
2017-08-31T07:30:09.627Z,23.42
2017-08-31T07:32:37.998Z,23.12
2017-08-31T07:35:06.350Z,22.88
2017-08-31T07:37:34.780Z,23.17
2017-08-31T07:40:03.113Z,23.10
2017-08-31T07:42:31.471Z,22.89
2017-08-31T07:44:59.855Z,23.04
2017-08-31T07:47:28.183Z,22.91
2017-08-31T07:49:56.541Z,22.80
2017-08-31T07:52:24.907Z,22.93
2017-08-31T07:54:53.311Z,22.90
2017-08-31T07:57:21.695Z,22.89
2017-08-31T07:59:50.021Z,22.55
2017-08-31T08:02:18.353Z,22.89
2017-08-31T08:04:47.703Z,22.45
2017-08-31T08:07:16.033Z,21.40
2017-08-31T08:09:44.394Z,22.55
2017-08-31T08:12:12.770Z,22.72
2017-08-31T08:14:41.267Z,22.15
2017-08-31T08:17:09.659Z,21.64
2017-08-31T08:19:37.994Z,22.49
2017-08-31T08:22:06.339Z,21.96
2017-08-31T08:24:34.829Z,21.63
2017-08-31T08:27:03.205Z,22.58
2017-08-31T08:29:31.673Z,22.36
2017-08-31T08:32:00.010Z,22.68
2017-08-31T08:34:28.342Z,22.34
2017-08-31T08:36:56.781Z,20.88
2017-08-31T08:39:25.173Z,21.75
2017-08-31T08:41:53.546Z,22.16
2017-08-31T08:44:21.873Z,22.52
2017-08-31T08:46:50.248Z,22.46
2017-08-31T08:49:19.006Z,22.24
2017-08-31T08:51:47.352Z,21.29
2017-08-31T08:54:15.705Z,21.65
2017-08-31T08:56:44.123Z,21.95
2017-08-31T08:59:12.518Z,22.05
2017-08-31T09:01:40.910Z,21.17
2017-08-31T09:04:09.294Z,20.34
2017-08-31T09:06:37.631Z,20.30
2017-08-31T09:09:06.155Z,21.15
2017-08-31T09:11:34.531Z,21.32
2017-08-31T09:14:02.967Z,21.61
2017-08-31T09:16:31.354Z,22.08
2017-08-31T09:18:59.683Z,22.84
2017-08-31T09:21:28.043Z,23.43
2017-08-31T09:23:56.431Z,23.16
2017-08-31T09:26:24.767Z,22.48
2017-08-31T09:28:53.201Z,22.51
2017-08-31T09:31:21.594Z,22.33
2017-08-31T09:33:49.930Z,22.26
2017-08-31T09:36:18.289Z,22.65
2017-08-31T09:38:46.777Z,22.70
2017-08-31T09:41:15.114Z,22.02
2017-08-31T09:43:43.450Z,22.45
2017-08-31T09:46:11.846Z,21.82
2017-08-31T09:48:40.182Z,22.29
2017-08-31T09:51:08.588Z,22.36
2017-08-31T09:53:37.018Z,22.36
2017-08-31T09:56:05.423Z,21.53
2017-08-31T09:58:33.901Z,22.24
2017-08-31T10:01:02.463Z,22.45
2017-08-31T10:03:30.897Z,22.08
2017-08-31T10:05:59.226Z,22.19
2017-08-31T10:08:27.596Z,21.94
2017-08-31T10:10:55.936Z,22.25
2017-08-31T10:13:24.358Z,21.92
2017-08-31T10:15:52.720Z,22.27
2017-08-31T10:18:21.061Z,22.06
2017-08-31T10:20:49.400Z,22.26
2017-08-31T10:23:17.770Z,22.30
2017-08-31T10:25:46.161Z,21.86
2017-08-31T11:20:37.554Z,17.29
2017-08-31T11:23:06.038Z,17.61
2017-08-31T11:25:34.387Z,17.57
2017-08-31T11:28:02.739Z,18.17
2017-08-31T11:30:31.128Z,17.13
2017-08-31T11:32:59.408Z,16.91
2017-08-31T11:35:27.868Z,16.50
2017-08-31T11:37:56.134Z,15.97
2017-08-31T11:40:24.478Z,16.05
2017-08-31T11:42:52.814Z,16.37
2017-08-31T11:45:21.266Z,16.89
2017-08-31T11:47:49.650Z,17.29
2017-08-31T11:50:18.058Z,17.05
2017-08-31T11:52:46.435Z,17.07
2017-08-31T11:55:14.826Z,16.09
2017-08-31T11:57:43.219Z,15.86
2017-08-31T12:00:11.585Z,15.80
2017-08-31T12:02:39.998Z,16.08
2017-08-31T12:05:08.393Z,16.48
2017-08-31T12:07:36.758Z,16.68
2017-08-31T12:10:05.090Z,16.74
2017-08-31T12:12:33.455Z,16.76
2017-08-31T12:15:01.790Z,16.80
2017-08-31T12:17:30.159Z,16.70
2017-08-31T12:19:58.491Z,16.60
2017-08-31T12:22:26.854Z,16.12
2017-08-31T12:24:55.170Z,15.93
2017-08-31T12:27:23.512Z,16.03
2017-08-31T12:29:51.839Z,15.68
2017-08-31T12:32:20.197Z,15.80
2017-08-31T12:34:48.539Z,15.53
2017-08-31T12:37:16.865Z,15.48
2017-08-31T12:39:45.286Z,15.52
2017-08-31T12:42:13.648Z,15.24
2017-08-31T12:44:42.047Z,15.23
2017-08-31T12:47:10.390Z,15.19
2017-08-31T12:49:38.758Z,15.33
2017-08-31T12:52:07.214Z,15.31
2017-08-31T12:54:35.602Z,15.74
2017-08-31T12:57:03.979Z,15.85
2017-08-31T12:59:32.382Z,16.01
2017-08-31T13:02:00.734Z,15.73
2017-08-31T13:04:29.079Z,15.59
2017-08-31T13:06:57.450Z,15.26
2017-08-31T13:09:25.778Z,14.99
2017-08-31T13:11:54.134Z,14.87
2017-08-31T13:14:22.502Z,14.78
2017-08-31T13:16:50.829Z,14.45
2017-08-31T13:19:19.210Z,14.60
2017-08-31T13:21:47.546Z,14.59
2017-08-31T13:24:15.921Z,14.71
2017-08-31T13:26:44.646Z,14.73
2017-08-31T13:29:13.088Z,14.59
2017-08-31T13:31:41.457Z,14.72
2017-08-31T13:34:09.862Z,14.73
2017-08-31T13:36:38.258Z,14.79
2017-08-31T13:39:06.618Z,14.47
2017-08-31T13:41:35.075Z,14.32
2017-08-31T13:44:03.463Z,14.47
2017-08-31T13:46:31.801Z,14.57
2017-08-31T13:49:00.223Z,14.46
2017-08-31T13:51:28.599Z,14.42
2017-08-31T13:53:56.943Z,14.23
2017-08-31T13:56:25.315Z,14.38
2017-08-31T13:58:53.675Z,14.13
2017-08-31T14:01:22.038Z,13.98
2017-08-31T14:03:50.475Z,14.04
2017-08-31T14:06:18.825Z,13.90
2017-08-31T14:08:47.204Z,13.73
2017-08-31T14:11:15.634Z,13.75
2017-08-31T14:13:44.027Z,13.57
2017-08-31T14:16:12.357Z,13.59
2017-08-31T14:18:40.736Z,13.55
2017-08-31T14:21:09.099Z,13.72
2017-08-31T14:23:37.481Z,13.90
2017-08-31T14:26:05.943Z,13.83
2017-08-31T14:28:34.403Z,13.77
2017-08-31T14:31:02.800Z,13.80
2017-08-31T14:33:31.129Z,13.87
2017-08-31T14:35:59.501Z,13.96
2017-08-31T14:38:27.931Z,13.84
2017-08-31T14:40:56.358Z,13.94
2017-08-31T14:43:24.705Z,14.07
2017-08-31T14:45:53.108Z,14.10
2017-08-31T14:48:21.535Z,14.47
2017-08-31T14:50:49.889Z,14.30
2017-08-31T14:53:18.282Z,14.42
2017-08-31T14:55:46.614Z,14.56
2017-08-31T14:58:14.974Z,14.75
2017-08-31T15:00:43.315Z,14.98
2017-08-31T15:03:11.750Z,15.31
2017-08-31T15:05:40.111Z,15.29
2017-08-31T15:08:08.525Z,15.09
2017-08-31T15:10:36.934Z,14.95
2017-08-31T15:13:05.466Z,14.92
2017-08-31T15:15:33.817Z,14.73
2017-08-31T15:18:02.224Z,14.71
2017-08-31T15:20:30.585Z,14.81
2017-08-31T15:22:58.918Z,14.81
2017-08-31T15:25:27.259Z,14.83
2017-08-31T15:27:55.674Z,14.71
2017-08-31T15:30:24.051Z,14.56
2017-08-31T15:32:52.459Z,14.58
2017-08-31T15:35:20.818Z,14.68
2017-08-31T15:37:49.161Z,14.61
2017-08-31T15:40:17.554Z,14.40
2017-08-31T15:42:45.911Z,14.57
2017-08-31T15:45:14.291Z,14.64
2017-08-31T15:47:42.690Z,14.40
2017-08-31T15:50:11.053Z,14.51
2017-08-31T15:52:39.410Z,14.58
2017-08-31T15:55:07.771Z,14.63
2017-08-31T15:57:36.168Z,14.56
2017-08-31T16:00:04.558Z,14.72
2017-08-31T16:02:32.940Z,14.94
2017-08-31T16:05:01.362Z,14.78
2017-08-31T16:07:29.710Z,14.72
2017-08-31T16:09:58.115Z,14.79
2017-08-31T16:12:26.462Z,14.64
2017-08-31T16:14:54.849Z,14.49
2017-08-31T16:17:23.193Z,14.73
2017-08-31T16:19:51.670Z,14.64
2017-08-31T16:22:20.086Z,14.47
2017-08-31T16:24:48.467Z,14.74
2017-08-31T16:27:17.013Z,14.72
2017-08-31T16:29:45.385Z,14.65
2017-08-31T16:32:13.740Z,14.69
2017-08-31T16:34:42.116Z,14.65
2017-08-31T16:37:10.552Z,14.71
2017-08-31T16:39:38.938Z,14.68
2017-08-31T16:42:07.298Z,14.66
2017-08-31T16:44:35.685Z,14.53
2017-08-31T16:47:04.025Z,14.54
2017-08-31T16:49:32.471Z,14.54
2017-08-31T16:52:00.811Z,14.61
2017-08-31T16:54:29.262Z,14.55
2017-08-31T16:56:57.682Z,14.76
2017-08-31T16:59:26.038Z,14.55
2017-08-31T17:01:54.410Z,14.63
2017-08-31T17:04:22.786Z,14.45
2017-08-31T17:06:51.116Z,14.45
2017-08-31T17:09:19.462Z,14.39
2017-08-31T17:11:47.935Z,14.27
2017-08-31T17:14:16.377Z,14.30
2017-08-31T17:16:44.777Z,14.04
2017-08-31T17:19:13.166Z,13.99
2017-08-31T17:21:41.505Z,13.88
2017-08-31T17:24:09.981Z,13.75
2017-08-31T17:26:38.450Z,13.66
2017-08-31T17:29:06.878Z,13.75
2017-08-31T17:31:35.436Z,13.71
2017-08-31T17:34:03.917Z,13.38
2017-08-31T17:36:32.309Z,13.47
2017-08-31T17:39:00.684Z,13.56
2017-08-31T17:41:29.093Z,13.35
2017-08-31T17:43:57.486Z,13.42
2017-08-31T17:46:25.891Z,13.47
2017-08-31T17:48:54.247Z,13.57
2017-08-31T17:51:22.671Z,13.47
2017-08-31T17:53:51.051Z,13.59
2017-08-31T17:56:19.446Z,13.59
2017-08-31T17:58:47.818Z,13.64
2017-08-31T18:01:16.230Z,13.59
2017-08-31T18:03:44.618Z,13.38
2017-08-31T18:06:13.002Z,13.26
2017-08-31T18:08:41.490Z,13.26
2017-08-31T18:11:09.901Z,13.34
2017-08-31T18:13:38.290Z,13.31
2017-08-31T18:16:06.629Z,13.33
2017-08-31T18:18:35.069Z,13.18
2017-08-31T18:21:03.444Z,13.02
2017-08-31T18:23:31.953Z,12.99
2017-08-31T18:26:00.340Z,13.06
2017-08-31T18:28:28.713Z,12.96
2017-08-31T18:30:57.174Z,13.06
2017-08-31T18:33:25.632Z,12.96
2017-08-31T18:35:54.019Z,12.84
2017-08-31T18:38:22.358Z,12.72
2017-08-31T18:40:50.800Z,12.65
2017-08-31T18:43:19.189Z,12.58
2017-08-31T18:45:47.534Z,12.48
2017-08-31T18:48:15.966Z,12.45
2017-08-31T18:50:44.314Z,12.56
2017-08-31T18:53:12.751Z,12.46
2017-08-31T18:55:41.147Z,12.38
2017-08-31T18:58:09.510Z,12.26
2017-08-31T19:00:37.895Z,12.18
2017-08-31T19:03:06.315Z,12.21
2017-08-31T19:05:34.666Z,12.21
2017-08-31T19:08:03.115Z,11.95
2017-08-31T19:10:31.531Z,11.89
2017-08-31T19:13:00.081Z,11.91
2017-08-31T19:15:28.538Z,11.82
2017-08-31T19:17:56.974Z,11.80
2017-08-31T19:20:25.379Z,11.82
2017-08-31T19:22:54.097Z,11.81
2017-08-31T19:25:22.466Z,11.79
2017-08-31T19:27:50.987Z,11.82
2017-08-31T19:30:19.343Z,11.69
2017-08-31T19:32:47.751Z,11.58
2017-08-31T19:35:16.131Z,11.60
2017-08-31T19:37:44.853Z,11.59
2017-08-31T19:40:13.319Z,11.51
2017-08-31T19:42:41.717Z,11.50
2017-08-31T19:45:10.089Z,11.39
2017-08-31T19:47:38.457Z,11.42
2017-08-31T19:50:06.911Z,11.47
2017-08-31T19:52:35.291Z,11.49
2017-08-31T19:55:03.641Z,11.47
2017-08-31T19:57:32.005Z,11.46
2017-08-31T20:00:00.446Z,11.47
2017-08-31T20:02:28.794Z,11.46
2017-08-31T20:04:57.231Z,11.39
2017-08-31T20:07:25.580Z,11.60
2017-08-31T20:09:53.922Z,11.70
2017-08-31T20:12:22.306Z,11.71
2017-08-31T20:14:50.650Z,11.48
2017-08-31T20:17:18.998Z,11.40
2017-08-31T20:19:47.342Z,11.42
2017-08-31T20:22:15.757Z,11.34
2017-08-31T20:24:44.135Z,11.43
2017-08-31T20:27:12.718Z,11.30
2017-08-31T20:29:41.147Z,11.15
2017-08-31T20:32:09.546Z,11.25
2017-08-31T20:34:37.934Z,11.13
2017-08-31T20:37:06.427Z,11.04
2017-08-31T20:39:34.766Z,11.04
2017-08-31T20:42:03.118Z,11.00
2017-08-31T20:44:31.486Z,11.05
2017-08-31T20:46:59.891Z,11.01
2017-08-31T20:49:28.266Z,10.95
2017-08-31T20:51:56.679Z,11.13
2017-08-31T20:54:25.165Z,11.06
2017-08-31T20:56:53.575Z,11.01
2017-08-31T20:59:21.921Z,10.96
2017-08-31T21:01:50.337Z,11.06
2017-08-31T21:04:18.686Z,11.03
2017-08-31T21:06:47.071Z,10.95
2017-08-31T21:09:15.423Z,10.87
2017-08-31T21:11:43.793Z,10.80
2017-08-31T21:14:12.182Z,10.83
2017-08-31T21:16:40.541Z,10.83
2017-08-31T21:19:09.103Z,10.80
2017-08-31T21:21:37.434Z,10.78
2017-08-31T21:24:05.798Z,10.77
2017-08-31T21:26:34.178Z,10.72
2017-08-31T21:29:02.558Z,10.56
2017-08-31T21:31:30.944Z,10.50
2017-08-31T21:33:59.340Z,10.43
2017-08-31T21:36:28.687Z,10.44
2017-08-31T21:38:57.073Z,10.53
2017-08-31T21:41:25.413Z,10.51
2017-08-31T21:43:53.806Z,10.67
2017-08-31T21:46:22.189Z,10.47
2017-08-31T21:48:50.586Z,10.43
2017-08-31T21:51:18.929Z,10.47
2017-08-31T21:53:47.305Z,10.44
2017-08-31T21:56:15.786Z,10.42
2017-08-31T21:58:44.181Z,10.32
2017-08-31T22:01:12.518Z,10.20
2017-08-31T22:03:40.944Z,10.17
2017-08-31T22:06:09.302Z,10.11
2017-08-31T22:08:37.654Z,10.15
2017-08-31T22:11:06.003Z,9.99
2017-08-31T22:13:34.402Z,9.92
2017-08-31T22:16:03.217Z,9.88
2017-08-31T22:18:31.592Z,9.91
2017-08-31T22:20:59.978Z,9.92
2017-08-31T22:23:28.553Z,9.93
2017-08-31T22:25:56.886Z,9.82
2017-08-31T22:28:25.221Z,9.82
2017-08-31T22:30:53.567Z,9.80
2017-08-31T22:33:21.934Z,9.86
2017-08-31T22:35:50.323Z,9.80
2017-08-31T22:38:18.733Z,9.74
2017-08-31T22:40:47.238Z,9.77
2017-08-31T22:43:15.601Z,9.80
2017-08-31T22:45:43.995Z,9.82
2017-08-31T22:48:12.391Z,9.85
2017-08-31T22:50:40.788Z,9.78
2017-08-31T22:53:09.145Z,9.78
2017-08-31T22:55:37.490Z,9.78
2017-08-31T22:58:12.504Z,9.74
2017-08-31T23:00:40.842Z,9.69
2017-08-31T23:03:09.182Z,9.66
2017-08-31T23:05:37.519Z,9.71
2017-08-31T23:08:05.866Z,9.70
2017-08-31T23:10:34.232Z,9.62
2017-08-31T23:13:02.647Z,9.58
2017-08-31T23:15:30.982Z,9.55
2017-08-31T23:17:59.322Z,9.52
2017-08-31T23:20:27.690Z,9.49
2017-08-31T23:22:56.047Z,9.41
2017-08-31T23:25:24.399Z,9.41
2017-08-31T23:27:52.790Z,9.43
2017-08-31T23:30:21.159Z,9.57
2017-08-31T23:32:49.502Z,9.80
2017-08-31T23:35:17.870Z,9.90
2017-08-31T23:37:46.258Z,9.61
2017-08-31T23:40:14.626Z,9.57
2017-08-31T23:42:42.958Z,9.58
2017-08-31T23:45:11.330Z,9.65
2017-08-31T23:47:39.714Z,9.52
2017-08-31T23:50:08.106Z,9.44
2017-08-31T23:52:36.470Z,9.41
2017-08-31T23:55:04.898Z,9.40
2017-08-31T23:57:33.299Z,9.19
